Observation data for Olton on 10/18/2019      Previous  Date       Current Mesonet Observations  Soil Data  Daily Summary Page  Observations in Plain Language
KONS 180500Z 17008KT 12/05 A2987 RMK A01 T01170054  RH  067%=      5-min Rain = 0
KONS 180505Z 17009KT 11/06 A2987 RMK A01 T01140055  RH  068%=      5-min Rain = 0
KONS 180510Z 17009KT 11/06 A2987 RMK A01 T01130055  RH  069%=      5-min Rain = 0
KONS 180515Z 17009KT 11/06 A2986 RMK A01 T01130055  RH  069%=      5-min Rain = 0
KONS 180520Z 17009KT 12/06 A2986 RMK A01 T01160057  RH  068%=      5-min Rain = 0
KONS 180525Z 17010KT 12/06 A2986 RMK A01 T01190059  RH  067%=      5-min Rain = 0
KONS 180530Z 17010KT 12/06 A2986 RMK A01 T01200060  RH  068%=      5-min Rain = 0
KONS 180535Z 17010KT 12/06 A2986 RMK A01 T01190061  RH  069%=      5-min Rain = 0
KONS 180540Z 17010KT 12/06 A2986 RMK A01 T01190062  RH  069%=      5-min Rain = 0
KONS 180545Z 17010KT 12/06 A2986 RMK A01 T01200064  RH  069%=      5-min Rain = 0
KONS 180550Z 17010KT 12/06 A2986 RMK A01 T01190064  RH  070%=      5-min Rain = 0
KONS 180555Z 17010KT 12/07 A2986 RMK A01 T01180066  RH  071%=      5-min Rain = 0
KONS 180600Z 17010KT 12/07 A2986 RMK A01 T01180067  RH  072%=      5-min Rain = 0
KONS 180605Z 17010KT 12/07 A2986 RMK A01 T01180068  RH  072%=      5-min Rain = 0
KONS 180610Z 17010KT 12/07 A2986 RMK A01 T01190069  RH  072%=      5-min Rain = 0
KONS 180615Z 18011KT 12/07 A2986 RMK A01 T01210070  RH  072%=      5-min Rain = 0
KONS 180620Z 18010KT 12/07 A2986 RMK A01 T01210071  RH  073%=      5-min Rain = 0
KONS 180625Z 18010KT 12/07 A2986 RMK A01 T01210072  RH  073%=      5-min Rain = 0
KONS 180630Z 18011KT 12/07 A2986 RMK A01 T01230073  RH  073%=      5-min Rain = 0
KONS 180635Z 17011KT 12/07 A2985 RMK A01 T01240073  RH  072%=      5-min Rain = 0
KONS 180640Z 17012KT 13/07 A2985 RMK A01 T01280074  RH  071%=      5-min Rain = 0
KONS 180645Z 18011KT 13/07 A2985 RMK A01 T01280074  RH  071%=      5-min Rain = 0
KONS 180650Z 18010KT 13/08 A2985 RMK A01 T01260075  RH  072%=      5-min Rain = 0
KONS 180655Z 18011KT 13/08 A2985 RMK A01 T01270075  RH  072%=      5-min Rain = 0
KONS 180700Z 18010KT 13/08 A2985 RMK A01 T01260076  RH  072%=      5-min Rain = 0
KONS 180705Z 18010KT 13/08 A2985 RMK A01 T01250076  RH  073%=      5-min Rain = 0
KONS 180710Z 18009KT 12/08 A2985 RMK A01 T01240076  RH  074%=      5-min Rain = 0
KONS 180715Z 18009KT 12/08 A2985 RMK A01 T01230076  RH  074%=      5-min Rain = 0
KONS 180720Z 18009KT 12/08 A2985 RMK A01 T01220077  RH  075%=      5-min Rain = 0
KONS 180725Z 18009KT 12/08 A2985 RMK A01 T01210077  RH  076%=      5-min Rain = 0
KONS 180730Z 18010KT 12/08 A2985 RMK A01 T01230079  RH  076%=      5-min Rain = 0
KONS 180735Z 18010KT 12/08 A2985 RMK A01 T01230080  RH  076%=      5-min Rain = 0
KONS 180740Z 18010KT 13/08 A2985 RMK A01 T01260081  RH  075%=      5-min Rain = 0
KONS 180745Z 18010KT 13/08 A2985 RMK A01 T01250081  RH  076%=      5-min Rain = 0
KONS 180750Z 18010KT 12/08 A2985 RMK A01 T01240082  RH  077%=      5-min Rain = 0
KONS 180755Z 18010KT 12/08 A2984 RMK A01 T01230083  RH  077%=      5-min Rain = 0
KONS 180800Z 18010KT 12/08 A2984 RMK A01 T01220083  RH  078%=      5-min Rain = 0
KONS 180805Z 18010KT 12/08 A2984 RMK A01 T01210083  RH  079%=      5-min Rain = 0
KONS 180810Z 18010KT 12/08 A2984 RMK A01 T01200083  RH  079%=      5-min Rain = 0
KONS 180815Z 18010KT 12/08 A2984 RMK A01 T01190083  RH  080%=      5-min Rain = 0
KONS 180820Z 18011KT 12/08 A2984 RMK A01 T01190083  RH  080%=      5-min Rain = 0
KONS 180825Z 18010KT 12/08 A2984 RMK A01 T01180083  RH  080%=      5-min Rain = 0
KONS 180830Z 18010KT 12/08 A2984 RMK A01 T01170084  RH  082%=      5-min Rain = 0
KONS 180835Z 18010KT 12/09 A2984 RMK A01 T01170085  RH  082%=      5-min Rain = 0
KONS 180840Z 18010KT 12/09 A2984 RMK A01 T01170085  RH  082%=      5-min Rain = 0
KONS 180845Z 19010KT 12/09 A2984 RMK A01 T01160086  RH  083%=      5-min Rain = 0
KONS 180850Z 18010KT 12/09 A2983 RMK A01 T01160086  RH  083%=      5-min Rain = 0
KONS 180855Z 19010KT 12/09 A2983 RMK A01 T01160087  RH  084%=      5-min Rain = 0
KONS 180900Z 19010KT 11/09 A2983 RMK A01 T01140086  RH  084%=      5-min Rain = 0
KONS 180905Z 19010KT 11/09 A2983 RMK A01 T01120086  RH  085%=      5-min Rain = 0
KONS 180910Z 19010KT 11/09 A2983 RMK A01 T01120086  RH  085%=      5-min Rain = 0
KONS 180915Z 19010KT 11/09 A2983 RMK A01 T01120086  RH  086%=      5-min Rain = 0
KONS 180920Z 19009KT 11/09 A2983 RMK A01 T01110086  RH  086%=      5-min Rain = 0
KONS 180925Z 19009KT 11/09 A2983 RMK A01 T01080085  RH  087%=      5-min Rain = 0
KONS 180930Z 20009KT 11/08 A2983 RMK A01 T01070084  RH  088%=      5-min Rain = 0
KONS 180935Z 19010KT 10/08 A2983 RMK A01 T01040084  RH  088%=      5-min Rain = 0
KONS 180940Z 19009KT 11/09 A2983 RMK A01 T01060085  RH  088%=      5-min Rain = 0
KONS 180945Z 19008KT 10/08 A2982 RMK A01 T01040083  RH  088%=      5-min Rain = 0
KONS 180950Z 20008KT 10/08 A2982 RMK A01 T00990081  RH  090%=      5-min Rain = 0
KONS 180955Z 19009KT 10/08 A2982 RMK A01 T00970080  RH  091%=      5-min Rain = 0
KONS 181000Z 19009KT 10/08 A2982 RMK A01 T00980080  RH  090%=      5-min Rain = 0
KONS 181005Z 19009KT 10/08 A2982 RMK A01 T00990081  RH  090%=      5-min Rain = 0
KONS 181010Z 19009KT 10/08 A2982 RMK A01 T00990081  RH  090%=      5-min Rain = 0
KONS 181015Z 19009KT 10/08 A2982 RMK A01 T00990081  RH  090%=      5-min Rain = 0
KONS 181020Z 19010KT 10/08 A2982 RMK A01 T01020083  RH  090%=      5-min Rain = 0
KONS 181025Z 18010KT 11/09 A2982 RMK A01 T01050085  RH  089%=      5-min Rain = 0
KONS 181030Z 19010KT 11/09 A2982 RMK A01 T01060086  RH  088%=      5-min Rain = 0
KONS 181035Z 19010KT 11/09 A2981 RMK A01 T01070086  RH  088%=      5-min Rain = 0
KONS 181040Z 19010KT 11/09 A2981 RMK A01 T01070087  RH  088%=      5-min Rain = 0
KONS 181045Z 18011KT 11/09 A2981 RMK A01 T01070087  RH  089%=      5-min Rain = 0
KONS 181050Z 19010KT 11/09 A2981 RMK A01 T01060087  RH  089%=      5-min Rain = 0
KONS 181055Z 19011KT 11/09 A2982 RMK A01 T01050086  RH  089%=      5-min Rain = 0
KONS 181100Z 19011KT 10/09 A2982 RMK A01 T01040086  RH  090%=      5-min Rain = 0
KONS 181105Z 18010KT 10/09 A2981 RMK A01 T01030085  RH  090%=      5-min Rain = 0
KONS 181110Z 18009KT 10/09 A2981 RMK A01 T01020085  RH  091%=      5-min Rain = 0
KONS 181115Z 19009KT 10/09 A2982 RMK A01 T01010085  RH  091%=      5-min Rain = 0
KONS 181120Z 19009KT 10/08 A2982 RMK A01 T01000084  RH  092%=      5-min Rain = 0
KONS 181125Z 19008KT 10/08 A2982 RMK A01 T01000084  RH  092%=      5-min Rain = 0
KONS 181130Z 19008KT 10/08 A2982 RMK A01 T00990084  RH  092%=      5-min Rain = 0
KONS 181135Z 18008KT 10/08 A2982 RMK A01 T00980084  RH  092%=      5-min Rain = 0
KONS 181140Z 19008KT 10/08 A2982 RMK A01 T00970084  RH  093%=      5-min Rain = 0
KONS 181145Z 18008KT 10/08 A2981 RMK A01 T00960083  RH  093%=      5-min Rain = 0
KONS 181150Z 18008KT 10/08 A2981 RMK A01 T00960083  RH  093%=      5-min Rain = 0
KONS 181155Z 18007KT 10/08 A2981 RMK A01 T00970084  RH  093%=      5-min Rain = 0
KONS 181200Z 19007KT 10/08 A2981 RMK A01 T00970084  RH  093%=      5-min Rain = 0
KONS 181205Z 19007KT 10/08 A2981 RMK A01 T00960083  RH  093%=      5-min Rain = 0
KONS 181210Z 19008KT 10/09 A2981 RMK A01 T00970085  RH  094%=      5-min Rain = 0
KONS 181215Z 19008KT 10/09 A2981 RMK A01 T00980085  RH  093%=      5-min Rain = 0
KONS 181220Z 19008KT 10/09 A2981 RMK A01 T00980085  RH  093%=      5-min Rain = 0
KONS 181225Z 19008KT 10/09 A2982 RMK A01 T00970085  RH  094%=      5-min Rain = 0
KONS 181230Z 19008KT 10/08 A2981 RMK A01 T00960084  RH  094%=      5-min Rain = 0
KONS 181235Z 19008KT 10/09 A2981 RMK A01 T00960085  RH  094%=      5-min Rain = 0
KONS 181240Z 19008KT 10/09 A2981 RMK A01 T00960085  RH  094%=      5-min Rain = 0
KONS 181245Z 19009KT 10/08 A2981 RMK A01 T00950084  RH  094%=      5-min Rain = 0
KONS 181250Z 19009KT 10/08 A2981 RMK A01 T00950084  RH  094%=      5-min Rain = 0
KONS 181255Z 19009KT 10/08 A2981 RMK A01 T00950084  RH  095%=      5-min Rain = 0
KONS 181300Z 19009KT 10/08 A2981 RMK A01 T00950084  RH  095%=      5-min Rain = 0
KONS 181305Z 19008KT 10/09 A2981 RMK A01 T00970086  RH  094%=      5-min Rain = 0
KONS 181310Z 19008KT 10/09 A2981 RMK A01 T00990087  RH  094%=      5-min Rain = 0
KONS 181315Z 19008KT 10/09 A2981 RMK A01 T01000088  RH  094%=      5-min Rain = 0
KONS 181320Z 18008KT 10/09 A2981 RMK A01 T01020089  RH  093%=      5-min Rain = 0
KONS 181325Z 18008KT 10/09 A2981 RMK A01 T01030090  RH  093%=      5-min Rain = 0
KONS 181330Z 18007KT 10/09 A2981 RMK A01 T01040091  RH  093%=      5-min Rain = 0
KONS 181335Z 18007KT 11/09 A2981 RMK A01 T01060092  RH  093%=      5-min Rain = 0
KONS 181340Z 18006KT 11/09 A2981 RMK A01 T01080094  RH  092%=      5-min Rain = 0
KONS 181345Z 19006KT 11/10 A2981 RMK A01 T01110095  RH  092%=      5-min Rain = 0
KONS 181350Z 20007KT 11/10 A2981 RMK A01 T01130097  RH  091%=      5-min Rain = 0
KONS 181355Z 19008KT 12/10 A2981 RMK A01 T01160098  RH  090%=      5-min Rain = 0
KONS 181400Z 19007KT 12/10 A2981 RMK A01 T01180099  RH  089%=      5-min Rain = 0
KONS 181405Z 19008KT 12/10 A2981 RMK A01 T01220101  RH  088%=      5-min Rain = 0
KONS 181410Z 19009KT 13/10 A2981 RMK A01 T01250102  RH  087%=      5-min Rain = 0
KONS 181415Z 19009KT 13/10 A2981 RMK A01 T01290104  RH  086%=      5-min Rain = 0
KONS 181420Z 19009KT 13/10 A2981 RMK A01 T01310103  RH  085%=      5-min Rain = 0
KONS 181425Z 20010KT 13/10 A2981 RMK A01 T01340103  RH  083%=      5-min Rain = 0
KONS 181430Z 20009KT 14/10 A2981 RMK A01 T01360104  RH  082%=      5-min Rain = 0
KONS 181435Z 20010KT 14/11 A2981 RMK A01 T01400105  RH  081%=      5-min Rain = 0
KONS 181440Z 20010KT 14/11 A2981 RMK A01 T01440106  RH  079%=      5-min Rain = 0
KONS 181445Z 20010KT 15/11 A2982 RMK A01 T01460105  RH  078%=      5-min Rain = 0
KONS 181450Z 20010KT 15/11 A2982 RMK A01 T01480105  RH  077%=      5-min Rain = 0
KONS 181455Z 20009KT 15/10 A2982 RMK A01 T01450103  RH  077%=      5-min Rain = 0
KONS 181500Z 20009KT 14/10 A2982 RMK A01 T01420102  RH  078%=      5-min Rain = 0
KONS 181505Z 20008KT 15/11 A2982 RMK A01 T01500107  RH  077%=      5-min Rain = 0
KONS 181510Z 20009KT 16/11 A2981 RMK A01 T01590107  RH  073%=      5-min Rain = 0
KONS 181515Z 20010KT 16/11 A2981 RMK A01 T01640108  RH  071%=      5-min Rain = 0
KONS 181520Z 19012KT 17/11 A2981 RMK A01 T01650106  RH  069%=      5-min Rain = 0
KONS 181525Z 19011KT 17/11 A2981 RMK A01 T01690109  RH  069%=      5-min Rain = 0
KONS 181530Z 19011KT 17/11 A2981 RMK A01 T01670105  RH  068%=      5-min Rain = 0
KONS 181535Z 19010KT 17/11 A2981 RMK A01 T01660106  RH  069%=      5-min Rain = 0
KONS 181540Z 20011KT 17/11 A2981 RMK A01 T01680106  RH  068%=      5-min Rain = 0
KONS 181545Z 20010KT 17/11 A2981 RMK A01 T01680106  RH  068%=      5-min Rain = 0
KONS 181550Z 21010KT 17/11 A2981 RMK A01 T01730109  RH  067%=      5-min Rain = 0
KONS 181555Z 21011KT 18/11 A2981 RMK A01 T01800108  RH  064%=      5-min Rain = 0
KONS 181600Z 21011KT 17/11 A2981 RMK A01 T01730107  RH  066%=      5-min Rain = 0
KONS 181605Z 22010KT 17/11 A298 RMK A01 T01710105  RH  066%=      5-min Rain = 0
KONS 181610Z 21011KT 18/11 A298 RMK A01 T01750108  RH  066%=      5-min Rain = 0
KONS 181615Z 21011KT 19/11 A2979 RMK A01 T01860111  RH  063%=      5-min Rain = 0
KONS 181620Z 21011KT 19/11 A2979 RMK A01 T01900112  RH  062%=      5-min Rain = 0
KONS 181625Z 20013KT 20/11 A2979 RMK A01 T01960114  RH  060%=      5-min Rain = 0
KONS 181630Z 21010KT 20/12 A2979 RMK A01 T02040119  RH  059%=      5-min Rain = 0
KONS 181635Z 22012G17KT 21/12 A2979 RMK A01 T02090119  RH  057%=      5-min Rain = 0
KONS 181640Z 22014G19KT 21/12 A2978 RMK A01 T02080117  RH  057%=      5-min Rain = 0
KONS 181645Z 21013KT 21/12 A2978 RMK A01 T02090116  RH  056%=      5-min Rain = 0
KONS 181650Z 22013KT 21/12 A2978 RMK A01 T02130119  RH  056%=      5-min Rain = 0
KONS 181655Z 22013KT 21/12 A2978 RMK A01 T02140118  RH  055%=      5-min Rain = 0
KONS 181700Z 22013KT 22/12 A2978 RMK A01 T02170119  RH  055%=      5-min Rain = 0
KONS 181705Z 22012G17KT 22/12 A2977 RMK A01 T02210121  RH  054%=      5-min Rain = 0
KONS 181710Z 22012KT 23/12 A2977 RMK A01 T02270122  RH  053%=      5-min Rain = 0
KONS 181715Z 22013KT 23/12 A2977 RMK A01 T02270120  RH  052%=      5-min Rain = 0
KONS 181720Z 21011KT 23/12 A2977 RMK A01 T02310123  RH  051%=      5-min Rain = 0
KONS 181725Z 20013G18KT 24/13 A2977 RMK A01 T02350125  RH  051%=      5-min Rain = 0
KONS 181730Z 21012G18KT 24/12 A2976 RMK A01 T02370123  RH  050%=      5-min Rain = 0
KONS 181735Z 21010G15KT 24/13 A2976 RMK A01 T02400126  RH  050%=      5-min Rain = 0
KONS 181740Z 22011KT 24/13 A2976 RMK A01 T02430126  RH  049%=      5-min Rain = 0
KONS 181745Z 21013G19KT 25/13 A2975 RMK A01 T02470126  RH  048%=      5-min Rain = 0
KONS 181750Z 22013G18KT 25/12 A2975 RMK A01 T02510124  RH  046%=      5-min Rain = 0
KONS 181755Z 21011G17KT 26/13 A2975 RMK A01 T02570128  RH  046%=      5-min Rain = 0
KONS 181800Z 22013KT 25/12 A2975 RMK A01 T02510124  RH  046%=      5-min Rain = 0
KONS 181805Z 22012KT 25/13 A2974 RMK A01 T02540127  RH  046%=      5-min Rain = 0
KONS 181810Z 21012G19KT 26/13 A2974 RMK A01 T02610128  RH  045%=      5-min Rain = 0
KONS 181815Z 21011KT 27/13 A2973 RMK A01 T02660129  RH  044%=      5-min Rain = 0
KONS 181820Z 23014G20KT 27/13 A2973 RMK A01 T02690127  RH  042%=      5-min Rain = 0
KONS 181825Z 23012KT 27/13 A2973 RMK A01 T02700125  RH  041%=      5-min Rain = 0
KONS 181830Z 24014G20KT 27/12 A2973 RMK A01 T02740121  RH  039%=      5-min Rain = 0
KONS 181835Z 25011G18KT 27/12 A2973 RMK A01 T02720118  RH  039%=      5-min Rain = 0
KONS 181840Z 25013G19KT 28/12 A2972 RMK A01 T02760118  RH  038%=      5-min Rain = 0
KONS 181845Z 24011G16KT 28/12 A2972 RMK A01 T02780119  RH  038%=      5-min Rain = 0
KONS 181850Z 25010KT 28/12 A2971 RMK A01 T02790119  RH  038%=      5-min Rain = 0
KONS 181855Z 21012G18KT 28/12 A2971 RMK A01 T02770118  RH  038%=      5-min Rain = 0
KONS 181900Z 23011G16KT 26/12 A2971 RMK A01 T02620118  RH  041%=      5-min Rain = 0
KONS 181905Z 25010KT 27/11 A297 RMK A01 T02650114  RH  040%=      5-min Rain = 0
KONS 181910Z 24008KT 26/12 A297 RMK A01 T02640118  RH  041%=      5-min Rain = 0
KONS 181915Z 23007G13KT 26/13 A297 RMK A01 T02600127  RH  044%=      5-min Rain = 0
KONS 181920Z 25012KT 28/11 A2969 RMK A01 T02780112  RH  036%=      5-min Rain = 0
KONS 181925Z 26012KT 29/11 A2969 RMK A01 T02850110  RH  034%=      5-min Rain = 0
KONS 181930Z 26014KT 29/10 A2969 RMK A01 T02850103  RH  033%=      5-min Rain = 0
KONS 181935Z 26012KT 28/10 A2968 RMK A01 T02840102  RH  033%=      5-min Rain = 0
KONS 181940Z 26017KT 29/10 A2968 RMK A01 T02860095  RH  031%=      5-min Rain = 0
KONS 181945Z 24016KT 29/10 A2968 RMK A01 T02870096  RH  031%=      5-min Rain = 0
KONS 181950Z 25010G16KT 28/09 A2968 RMK A01 T02810089  RH  031%=      5-min Rain = 0
KONS 181955Z 24011G17KT 28/10 A2968 RMK A01 T02760096  RH  033%=      5-min Rain = 0
KONS 182000Z 25012G17KT 27/10 A2968 RMK A01 T02660095  RH  035%=      5-min Rain = 0
KONS 182005Z 26011G18KT 27/10 A2967 RMK A01 T02710099  RH  035%=      5-min Rain = 0
KONS 182010Z 24014KT 28/10 A2967 RMK A01 T02780097  RH  033%=      5-min Rain = 0
KONS 182015Z 26014KT 27/10 A2967 RMK A01 T02670095  RH  034%=      5-min Rain = 0
KONS 182020Z 26013KT 28/10 A2967 RMK A01 T02780101  RH  034%=      5-min Rain = 0
KONS 182025Z 25011G16KT 29/10 A2966 RMK A01 T02860099  RH  032%=      5-min Rain = 0
KONS 182030Z 26014KT 28/10 A2966 RMK A01 T02800098  RH  033%=      5-min Rain = 0
KONS 182035Z 25012KT 27/10 A2966 RMK A01 T02730101  RH  035%=      5-min Rain = 0
KONS 182040Z 26011KT 28/10 A2966 RMK A01 T02770103  RH  034%=      5-min Rain = 0
KONS 182045Z 27010KT 27/10 A2966 RMK A01 T02690099  RH  035%=      5-min Rain = 0
KONS 182050Z 24011G17KT 27/10 A2966 RMK A01 T02740104  RH  035%=      5-min Rain = 0
KONS 182055Z 24011G16KT 29/10 A2966 RMK A01 T02860104  RH  033%=      5-min Rain = 0
KONS 182100Z 27011KT 29/10 A2966 RMK A01 T02880099  RH  031%=      5-min Rain = 0
KONS 182105Z 25011G16KT 29/10 A2966 RMK A01 T02900103  RH  032%=      5-min Rain = 0
KONS 182110Z 25013G18KT 29/10 A2966 RMK A01 T02860100  RH  032%=      5-min Rain = 0
KONS 182115Z 25013KT 27/10 A2966 RMK A01 T02700100  RH  035%=      5-min Rain = 0
KONS 182120Z 25013G19KT 27/10 A2966 RMK A01 T02740103  RH  035%=      5-min Rain = 0
KONS 182125Z 25014KT 28/10 A2966 RMK A01 T02830100  RH  032%=      5-min Rain = 0
KONS 182130Z 25013KT 28/10 A2966 RMK A01 T02750098  RH  034%=      5-min Rain = 0
KONS 182135Z 25010KT 26/10 A2966 RMK A01 T02630102  RH  037%=      5-min Rain = 0
KONS 182140Z 26011KT 26/10 A2966 RMK A01 T02610096  RH  036%=      5-min Rain = 0
KONS 182145Z 24009KT 26/10 A2966 RMK A01 T02590104  RH  038%=      5-min Rain = 0
KONS 182150Z 24011KT 26/10 A2966 RMK A01 T02560103  RH  039%=      5-min Rain = 0
KONS 182155Z 25010KT 26/10 A2966 RMK A01 T02560097  RH  037%=      5-min Rain = 0
KONS 182200Z 25011KT 26/10 A2966 RMK A01 T02570095  RH  037%=      5-min Rain = 0
KONS 182205Z 26013KT 27/09 A2966 RMK A01 T02680091  RH  033%=      5-min Rain = 0
KONS 182210Z 27014KT 28/07 A2966 RMK A01 T02760069  RH  027%=      5-min Rain = 0
KONS 182215Z 26017KT 28/07 A2966 RMK A01 T02770071  RH  028%=      5-min Rain = 0
KONS 182220Z 26015KT 28/07 A2966 RMK A01 T02760072  RH  028%=      5-min Rain = 0
KONS 182225Z 25017KT 27/07 A2966 RMK A01 T02740070  RH  028%=      5-min Rain = 0
KONS 182230Z 25014G19KT 27/07 A2967 RMK A01 T02720069  RH  028%=      5-min Rain = 0
KONS 182235Z 25014G20KT 27/07 A2967 RMK A01 T02710070  RH  028%=      5-min Rain = 0
KONS 182240Z 26012KT 27/07 A2967 RMK A01 T02710066  RH  027%=      5-min Rain = 0
KONS 182245Z 26012KT 27/06 A2967 RMK A01 T02710064  RH  027%=      5-min Rain = 0
KONS 182250Z 25011KT 27/07 A2967 RMK A01 T02700068  RH  028%=      5-min Rain = 0
KONS 182255Z 25012KT 27/07 A2967 RMK A01 T02680069  RH  029%=      5-min Rain = 0
KONS 182300Z 25009G14KT 27/07 A2967 RMK A01 T02660074  RH  030%=      5-min Rain = 0
KONS 182305Z 25012G17KT 26/07 A2967 RMK A01 T02630069  RH  030%=      5-min Rain = 0
KONS 182310Z 24011KT 26/07 A2967 RMK A01 T02600071  RH  030%=      5-min Rain = 0
KONS 182315Z 24009KT 26/08 A2967 RMK A01 T02580076  RH  032%=      5-min Rain = 0
KONS 182320Z 24011KT 25/07 A2967 RMK A01 T02540073  RH  032%=      5-min Rain = 0
KONS 182325Z 24010KT 25/07 A2967 RMK A01 T02460070  RH  033%=      5-min Rain = 0
KONS 182330Z 25008KT 24/07 A2968 RMK A01 T02370072  RH  035%=      5-min Rain = 0
KONS 182335Z 25008KT 23/08 A2968 RMK A01 T02280075  RH  038%=      5-min Rain = 0
KONS 182340Z 25007KT 22/08 A2968 RMK A01 T02210077  RH  040%=      5-min Rain = 0
KONS 182345Z 26006KT 22/08 A2968 RMK A01 T02180076  RH  041%=      5-min Rain = 0
KONS 182350Z 26006KT 22/07 A2968 RMK A01 T02170074  RH  040%=      5-min Rain = 0
KONS 182355Z 29008KT 21/08 A2968 RMK A01 T02080079  RH  044%=      5-min Rain = 0
KONS 190000Z 30007KT 21/08 A2968 RMK A01 T02060077  RH  044%=      5-min Rain = 0
KONS 190005Z 29006KT 21/08 A2968 RMK A01 T02060077  RH  044%=      5-min Rain = 0
KONS 190010Z 26006KT 21/08 A2968 RMK A01 T02070077  RH  044%=      5-min Rain = 0
KONS 190015Z 27006KT 21/08 A2968 RMK A01 T02060081  RH  045%=      5-min Rain = 0
KONS 190020Z 26007KT 20/09 A2969 RMK A01 T02010085  RH  048%=      5-min Rain = 0
KONS 190025Z 26007KT 20/09 A2969 RMK A01 T02020085  RH  048%=      5-min Rain = 0
KONS 190030Z 29010G18KT 21/09 A297 RMK A01 T02080087  RH  046%=      5-min Rain = 0
KONS 190035Z 29025G37KT 21/09 A2972 RMK A01 T02130085  RH  044%=      5-min Rain = 0
KONS 190040Z 29022G28KT 21/09 A2973 RMK A01 T02070087  RH  047%=      5-min Rain = 0
KONS 190045Z 31024G29KT 18/10 A2973 RMK A01 T01830104  RH  061%=      5-min Rain = 0
KONS 190050Z 31018G24KT 17/11 A2973 RMK A01 T01670111  RH  071%=      5-min Rain = 0
KONS 190055Z 30015KT 16/11 A2973 RMK A01 T01640110  RH  072%=      5-min Rain = 0
KONS 190100Z 30013KT 16/11 A2973 RMK A01 T01630108  RH  071%=      5-min Rain = 0
KONS 190105Z 30013KT 16/11 A2973 RMK A01 T01600108  RH  072%=      5-min Rain = 0
KONS 190110Z 30012KT 16/11 A2973 RMK A01 T01590108  RH  073%=      5-min Rain = 0
KONS 190115Z 30011KT 16/11 A2973 RMK A01 T01570108  RH  074%=      5-min Rain = 0
KONS 190120Z 30009KT 16/11 A2973 RMK A01 T01550108  RH  075%=      5-min Rain = 0
KONS 190125Z 30009KT 15/11 A2973 RMK A01 T01530108  RH  076%=      5-min Rain = 0
KONS 190130Z 31010KT 15/11 A2973 RMK A01 T01530105  RH  075%=      5-min Rain = 0
KONS 190135Z 30009KT 16/10 A2974 RMK A01 T01550104  RH  073%=      5-min Rain = 0
KONS 190140Z 30007KT 15/10 A2973 RMK A01 T01510103  RH  074%=      5-min Rain = 0
KONS 190145Z 32007KT 15/10 A2974 RMK A01 T01450103  RH  077%=      5-min Rain = 0
KONS 190150Z 26008KT 14/10 A2974 RMK A01 T01400102  RH  080%=      5-min Rain = 0
KONS 190155Z 29008KT 15/10 A2974 RMK A01 T01460101  RH  076%=      5-min Rain = 0
KONS 190200Z 29008KT 14/10 A2974 RMK A01 T01420100  RH  077%=      5-min Rain = 0
KONS 190205Z 29008KT 14/10 A2975 RMK A01 T01390099  RH  078%=      5-min Rain = 0
KONS 190210Z 28007KT 14/10 A2974 RMK A01 T01370098  RH  079%=      5-min Rain = 0
KONS 190215Z 28006KT 14/10 A2974 RMK A01 T01350096  RH  079%=      5-min Rain = 0
KONS 190220Z 28007KT 13/10 A2975 RMK A01 T01330096  RH  079%=      5-min Rain = 0
KONS 190225Z 28007KT 13/10 A2975 RMK A01 T01310096  RH  081%=      5-min Rain = 0
KONS 190230Z 27006KT 13/09 A2975 RMK A01 T01280094  RH  081%=      5-min Rain = 0
KONS 190235Z 26007KT 13/09 A2975 RMK A01 T01290092  RH  079%=      5-min Rain = 0
KONS 190240Z 25007KT 12/09 A2975 RMK A01 T01210090  RH  083%=      5-min Rain = 0
KONS 190245Z 24007KT 12/09 A2975 RMK A01 T01160090  RH  085%=      5-min Rain = 0
KONS 190250Z 23007KT 12/09 A2975 RMK A01 T01160089  RH  085%=      5-min Rain = 0
KONS 190255Z 23007KT 12/09 A2975 RMK A01 T01170089  RH  084%=      5-min Rain = 0
KONS 190300Z 22008KT 11/09 A2975 RMK A01 T01140089  RH  086%=      5-min Rain = 0
KONS 190305Z 23009KT 11/09 A2975 RMK A01 T01140088  RH  085%=      5-min Rain = 0
KONS 190310Z 23009KT 12/09 A2975 RMK A01 T01170087  RH  083%=      5-min Rain = 0
KONS 190315Z 24009KT 12/08 A2976 RMK A01 T01170084  RH  082%=      5-min Rain = 0
KONS 190320Z 24009KT 12/08 A2976 RMK A01 T01170083  RH  081%=      5-min Rain = 0
KONS 190325Z 23008KT 11/08 A2976 RMK A01 T01130081  RH  082%=      5-min Rain = 0
KONS 190330Z 22008KT 11/08 A2977 RMK A01 T01100080  RH  083%=      5-min Rain = 0
KONS 190335Z 22008KT 11/08 A2977 RMK A01 T01110078  RH  081%=      5-min Rain = 0
KONS 190340Z 22007KT 11/08 A2977 RMK A01 T01100077  RH  081%=      5-min Rain = 0
KONS 190345Z 22008KT 11/08 A2977 RMK A01 T01080076  RH  082%=      5-min Rain = 0
KONS 190350Z 22008KT 11/07 A2977 RMK A01 T01110074  RH  079%=      5-min Rain = 0
KONS 190355Z 23009KT 11/07 A2977 RMK A01 T01120074  RH  079%=      5-min Rain = 0
KONS 190400Z 23009KT 11/07 A2978 RMK A01 T01100074  RH  080%=      5-min Rain = 0
KONS 190405Z 24009KT 11/07 A2978 RMK A01 T01090073  RH  080%=      5-min Rain = 0
KONS 190410Z 24009KT 11/07 A2978 RMK A01 T01090072  RH  079%=      5-min Rain = 0
KONS 190415Z 24010KT 11/07 A2978 RMK A01 T01100071  RH  078%=      5-min Rain = 0
KONS 190420Z 24009KT 11/07 A2978 RMK A01 T01110070  RH  077%=      5-min Rain = 0
KONS 190425Z 24009KT 11/07 A2978 RMK A01 T01120069  RH  076%=      5-min Rain = 0
KONS 190430Z 24010KT 11/07 A2978 RMK A01 T01130068  RH  075%=      5-min Rain = 0
KONS 190435Z 25010KT 12/07 A2978 RMK A01 T01170068  RH  073%=      5-min Rain = 0
KONS 190440Z 24010KT 12/07 A2978 RMK A01 T01170068  RH  073%=      5-min Rain = 0
KONS 190445Z 24009KT 12/07 A2978 RMK A01 T01160068  RH  074%=      5-min Rain = 0
KONS 190450Z 24008KT 11/07 A2978 RMK A01 T01120068  RH  075%=      5-min Rain = 0
KONS 190455Z 24009KT 11/07 A2978 RMK A01 T01090067  RH  076%=      5-min Rain = 0

Page generated in 0.0092 seconds.